Flugplatz Wesel-Römerwardt

Für EDLX sind keine METAR/TAF Berichte vorhanden.
Es werden die Flugwettermeldungen vom Flugplatz Niederrhein in 32 km Entfernung angezeigt.

Bericht für EDLV

vom 16.01. um 09:50 UTC

Wind 10 kt aus 240°

Sichtweite 10 km oder mehr

aufgebrochene Bewölkung in 4500 ft

Temperatur 4.0°C

Taupunkt 4.0°C

Luftfeuchtigkeit 100%

Luftdruck 1024 hPa

EDLV 160950Z 24010KT 9999 BKN045 04/04 Q1024

Prognose für EDLV

vom 16.01. um 09:00 UTC

Zwischen 09:00 UTC und 06:00 UTC

Wind 5 kt aus 250°

Sichtweite 8000 m

aufgebrochene Bewölkung in 3500 ft


Zwischen 09:00 UTC und 16:00 UTC zeitweise mit einer Wahrscheinlichkeit von 30%

aufgebrochene Bewölkung in 1000 ft


Zwischen 09:00 und 11:00 UTC übergehend zu

Wind 11 kt aus 270°

Sichtweite 8000 m

aufgebrochene Bewölkung in 3500 ft


Zwischen 16:00 UTC und 02:00 UTC zeitweise

Sichtweite 3000 m

schwacher Sprühregen

aufgebrochene Bewölkung in 700 ft


Am 17.01. zwischen 02:00 UTC und 06:00 UTC zeitweise

Sichtweite 1200 m

feuchter Dunst

TAF AMD EDLV 160900Z 1609/1706 25005KT 8000 BKN035 BECMG 1609/1611 27011KT PROB30 TEMPO 1609/1616 BKN010 TEMPO 1616/1702 3000 -DZ BKN007 TEMPO 1702/1706 1200 BR
Impressum